Date,TemperatureHighF,TemperatureAvgF,TemperatureLowF,DewpointHighF,DewpointAvgF,DewpointLowF,HumidityHigh,HumidityAvg,HumidityLow,PressureMaxIn,PressureMinIn,WindSpeedMaxMPH,WindSpeedAvgMPH,GustSpeedMaxMPH,PrecipitationSumIn
2013-2-1,60.2,54.2,47.4,54.3,50.6,44.9,95,88,76,30.14,29.70,13,5,24,0.00
2013-2-2,59.9,55.1,51.8,54.2,49.9,39.8,93,83,62,29.70,29.24,20,11,33,0.05
2013-2-3,54.1,48.8,44.3,43.0,38.3,28.2,89,68,51,29.94,29.30,15,6,26,0.04
2013-2-4,57.1,46.2,37.3,38.6,31.6,22.3,75,58,30,30.13,29.94,13,4,15,0.00
2013-2-5,53.5,48.8,41.9,49.7,43.3,36.5,94,82,72,30.11,29.76,12,4,22,0.02
2013-2-6,55.3,50.3,43.5,48.9,42.1,33.9,94,75,48,29.77,29.48,18,6,31,0.05
2013-2-7,50.5,44.2,40.4,43.7,39.9,35.9,94,85,69,29.55,29.43,13,5,20,0.55
2013-2-8,52.8,45.2,40.3,36.6,32.5,28.0,81,62,47,29.73,29.54,16,7,22,0.00
2013-2-9,49.7,42.3,36.8,34.9,27.5,23.9,81,57,41,29.86,29.72,14,6,25,0.00
2013-2-10,49.8,40.8,33.5,27.8,23.5,11.7,75,52,23,29.93,29.85,10,3,20,0.00
2013-2-11,54.8,45.7,38.4,47.9,37.9,21.8,93,75,45,29.93,29.51,22,9,35,0.60
2013-2-12,56.3,48.4,42.9,46.8,43.7,41.3,94,85,65,29.67,29.52,7,2,13,0.00
2013-2-13,55.7,46.1,39.3,42.4,37.3,34.3,92,73,48,29.79,29.65,12,4,22,0.00
2013-2-14,58.0,46.7,38.5,41.3,36.7,33.8,83,69,46,29.97,29.80,12,5,16,0.00
2013-2-15,55.8,45.9,37.6,40.6,37.8,34.1,92,74,50,29.99,29.93,6,1,9,0.00
2013-2-16,58.4,47.7,39.4,43.4,39.3,35.7,88,73,47,30.04,29.96,10,3,17,0.00
2013-2-17,53.7,44.9,39.2,44.2,39.1,35.1,87,80,69,30.04,29.95,12,2,20,0.55
2013-2-18,54.4,45.0,39.2,42.9,38.8,36.5,94,80,59,29.98,29.92,8,3,15,0.01
2013-2-19,56.3,45.3,36.5,38.2,34.9,31.5,86,68,39,29.99,29.91,10,3,15,0.00
2013-2-20,55.1,45.4,35.7,41.2,36.7,31.6,85,72,54,29.97,29.88,7,2,12,0.00
2013-2-21,57.1,47.0,37.4,44.7,39.4,34.2,89,75,53,29.89,29.65,9,2,12,0.01
2013-2-22,54.9,51.0,47.2,50.9,47.3,44.6,92,87,75,29.65,29.41,13,6,24,0.03
2013-2-23,56.1,49.6,41.3,54.1,45.6,39.4,94,86,70,29.59,29.37,23,8,41,0.31
2013-2-24,49.9,45.3,39.8,41.2,36.8,31.7,87,73,52,29.90,29.59,17,5,28,0.12
2013-2-25,44.7,41.9,39.3,40.1,38.1,34.9,93,86,76,30.02,29.90,15,5,23,0.40
2013-2-26,55.4,46.1,38.6,42.8,39.5,36.3,92,78,59,30.10,30.00,7,2,9,0.00
2013-2-27,56.7,47.8,39.0,42.0,37.5,35.1,90,69,49,30.18,30.10,13,3,18,0.00
2013-2-28,59.3,48.4,37.9,45.0,39.8,33.8,87,73,53,30.21,30.11,8,3,16,0.00